Terminal Aerodrome Forecast
Issued by NWS

Home | Current Version | Previous Version | Graphics & Text | Print | Product List | Glossary On
Versions: 1 2 3 4 5 6 7 8 9 10 11 12 13
433
FTUS43 KBIS 271738
TAFJMS
TAF
KJMS 271738Z 2718/2818 07015G23KT P6SM SCT160 OVC200
     FM280000 07014KT P6SM BKN160 OVC200
     FM280300 06009KT P6SM OVC120
     FM281300 05010KT P6SM SCT130 OVC180=

USA.gov is the U.S. government's official web portal to all federal, state and local government web resources and services.